sensor_id;sensor_type;location;lat;lon;timestamp;pressure;altitude;pressure_sealevel;temperature;humidity
31005;BME280;17676;52.254;4.490;2023-12-07T00:01:31;102460.75;;;3.02;100.00
31005;BME280;17676;52.254;4.490;2023-12-07T00:03:59;102456.97;;;2.93;100.00
31005;BME280;17676;52.254;4.490;2023-12-07T00:06:25;102457.47;;;2.87;100.00
31005;BME280;17676;52.254;4.490;2023-12-07T00:08:52;102459.38;;;2.85;100.00
31005;BME280;17676;52.254;4.490;2023-12-07T00:11:17;102465.13;;;2.81;100.00
31005;BME280;17676;52.254;4.490;2023-12-07T00:13:43;102457.56;;;2.75;100.00
31005;BME280;17676;52.254;4.490;2023-12-07T00:16:09;102449.66;;;2.73;100.00
31005;BME280;17676;52.254;4.490;2023-12-07T00:18:35;102460.44;;;2.72;100.00
31005;BME280;17676;52.254;4.490;2023-12-07T00:21:02;102455.72;;;2.64;100.00
31005;BME280;17676;52.254;4.490;2023-12-07T00:23:28;102452.53;;;2.59;100.00
31005;BME280;17676;52.254;4.490;2023-12-07T00:25:53;102457.63;;;2.62;100.00
31005;BME280;17676;52.254;4.490;2023-12-07T00:28:19;102457.03;;;2.59;100.00
31005;BME280;17676;52.254;4.490;2023-12-07T00:30:44;102444.25;;;2.51;100.00
31005;BME280;17676;52.254;4.490;2023-12-07T00:33:10;102448.84;;;2.49;100.00
31005;BME280;17676;52.254;4.490;2023-12-07T00:35:36;102436.81;;;2.44;100.00
31005;BME280;17676;52.254;4.490;2023-12-07T00:38:02;102456.88;;;2.49;100.00
31005;BME280;17676;52.254;4.490;2023-12-07T00:40:28;102451.38;;;2.40;100.00
31005;BME280;17676;52.254;4.490;2023-12-07T00:42:53;102449.78;;;2.37;100.00
31005;BME280;17676;52.254;4.490;2023-12-07T00:45:19;102459.53;;;2.38;100.00
31005;BME280;17676;52.254;4.490;2023-12-07T00:47:45;102458.06;;;2.34;100.00
31005;BME280;17676;52.254;4.490;2023-12-07T00:50:13;102466.50;;;2.28;100.00
31005;BME280;17676;52.254;4.490;2023-12-07T00:52:39;102449.50;;;2.29;100.00
31005;BME280;17676;52.254;4.490;2023-12-07T00:55:05;102475.78;;;2.35;100.00
31005;BME280;17676;52.254;4.490;2023-12-07T00:57:31;102462.16;;;2.27;100.00
31005;BME280;17676;52.254;4.490;2023-12-07T00:59:57;102464.19;;;2.24;100.00
31005;BME280;17676;52.254;4.490;2023-12-07T01:02:22;102466.75;;;2.25;100.00
31005;BME280;17676;52.254;4.490;2023-12-07T01:04:48;102464.53;;;2.19;100.00
31005;BME280;17676;52.254;4.490;2023-12-07T01:07:14;102460.50;;;2.14;100.00
31005;BME280;17676;52.254;4.490;2023-12-07T01:09:39;102463.28;;;2.12;100.00
31005;BME280;17676;52.254;4.490;2023-12-07T01:12:05;102478.88;;;2.18;100.00
31005;BME280;17676;52.254;4.490;2023-12-07T01:14:31;102476.63;;;2.12;100.00
31005;BME280;17676;52.254;4.490;2023-12-07T01:16:57;102470.78;;;2.07;100.00
31005;BME280;17676;52.254;4.490;2023-12-07T01:19:23;102486.88;;;2.18;100.00
31005;BME280;17676;52.254;4.490;2023-12-07T01:21:50;102474.19;;;2.09;100.00
31005;BME280;17676;52.254;4.490;2023-12-07T01:24:16;102473.53;;;2.18;100.00
31005;BME280;17676;52.254;4.490;2023-12-07T01:26:41;102475.66;;;2.13;100.00
31005;BME280;17676;52.254;4.490;2023-12-07T01:29:07;102473.75;;;2.15;100.00
31005;BME280;17676;52.254;4.490;2023-12-07T01:31:33;102477.41;;;2.14;100.00
31005;BME280;17676;52.254;4.490;2023-12-07T01:33:58;102483.22;;;2.19;100.00
31005;BME280;17676;52.254;4.490;2023-12-07T01:36:24;102469.66;;;2.22;100.00
31005;BME280;17676;52.254;4.490;2023-12-07T01:38:50;102480.34;;;2.22;100.00
31005;BME280;17676;52.254;4.490;2023-12-07T01:41:15;102481.19;;;2.23;100.00
31005;BME280;17676;52.254;4.490;2023-12-07T01:43:47;102485.97;;;2.30;100.00
31005;BME280;17676;52.254;4.490;2023-12-07T01:46:13;102473.91;;;2.25;100.00
31005;BME280;17676;52.254;4.490;2023-12-07T01:48:40;102484.50;;;2.26;100.00
31005;BME280;17676;52.254;4.490;2023-12-07T01:51:06;102474.03;;;2.23;100.00
31005;BME280;17676;52.254;4.490;2023-12-07T01:53:32;102466.00;;;2.23;100.00
31005;BME280;17676;52.254;4.490;2023-12-07T01:55:59;102462.59;;;2.21;100.00
31005;BME280;17676;52.254;4.490;2023-12-07T01:58:25;102459.47;;;2.27;100.00
31005;BME280;17676;52.254;4.490;2023-12-07T02:00:50;102475.41;;;2.29;100.00
31005;BME280;17676;52.254;4.490;2023-12-07T02:03:17;102469.66;;;2.22;100.00
31005;BME280;17676;52.254;4.490;2023-12-07T02:05:46;102469.41;;;2.25;100.00
31005;BME280;17676;52.254;4.490;2023-12-07T02:08:13;102467.72;;;2.24;100.00
31005;BME280;17676;52.254;4.490;2023-12-07T02:10:41;102478.19;;;2.27;100.00
31005;BME280;17676;52.254;4.490;2023-12-07T02:13:07;102472.84;;;2.27;100.00
31005;BME280;17676;52.254;4.490;2023-12-07T02:15:34;102476.22;;;2.29;100.00
31005;BME280;17676;52.254;4.490;2023-12-07T02:20:48;102469.94;;;2.30;100.00
31005;BME280;17676;52.254;4.490;2023-12-07T02:23:18;102481.94;;;2.36;100.00
31005;BME280;17676;52.254;4.490;2023-12-07T02:25:52;102484.50;;;2.37;100.00
31005;BME280;17676;52.254;4.490;2023-12-07T02:28:18;102477.47;;;2.36;100.00
31005;BME280;17676;52.254;4.490;2023-12-07T02:30:44;102485.38;;;2.38;100.00
31005;BME280;17676;52.254;4.490;2023-12-07T02:33:10;102477.47;;;2.36;100.00
31005;BME280;17676;52.254;4.490;2023-12-07T02:35:37;102484.78;;;2.34;100.00
31005;BME280;17676;52.254;4.490;2023-12-07T02:38:03;102482.59;;;2.39;100.00
31005;BME280;17676;52.254;4.490;2023-12-07T02:40:32;102477.13;;;2.41;100.00
31005;BME280;17676;52.254;4.490;2023-12-07T02:42:59;102479.16;;;2.37;100.00
31005;BME280;17676;52.254;4.490;2023-12-07T02:45:25;102480.25;;;2.35;100.00
31005;BME280;17676;52.254;4.490;2023-12-07T02:47:52;102483.03;;;2.33;100.00
31005;BME280;17676;52.254;4.490;2023-12-07T02:50:18;102474.53;;;2.28;100.00
31005;BME280;17676;52.254;4.490;2023-12-07T02:52:44;102476.97;;;2.31;100.00
31005;BME280;17676;52.254;4.490;2023-12-07T02:55:12;102482.59;;;2.39;100.00
31005;BME280;17676;52.254;4.490;2023-12-07T02:57:37;102481.44;;;2.31;100.00
31005;BME280;17676;52.254;4.490;2023-12-07T03:00:04;102494.19;;;2.27;100.00
31005;BME280;17676;52.254;4.490;2023-12-07T03:02:37;102492.50;;;2.26;100.00
31005;BME280;17676;52.254;4.490;2023-12-07T03:05:03;102485.91;;;2.19;100.00
31005;BME280;17676;52.254;4.490;2023-12-07T03:07:29;102486.13;;;2.16;100.00
31005;BME280;17676;52.254;4.490;2023-12-07T03:09:55;102489.78;;;2.15;100.00
31005;BME280;17676;52.254;4.490;2023-12-07T03:12:21;102486.22;;;2.15;100.00
31005;BME280;17676;52.254;4.490;2023-12-07T03:14:48;102494.91;;;2.18;100.00
31005;BME280;17676;52.254;4.490;2023-12-07T03:17:14;102476.34;;;2.04;100.00
31005;BME280;17676;52.254;4.490;2023-12-07T03:19:42;102471.47;;;1.98;100.00
31005;BME280;17676;52.254;4.490;2023-12-07T03:22:08;102477.66;;;1.99;100.00
31005;BME280;17676;52.254;4.490;2023-12-07T03:24:37;102484.03;;;2.09;100.00
31005;BME280;17676;52.254;4.490;2023-12-07T03:27:03;102493.41;;;2.14;100.00
31005;BME280;17676;52.254;4.490;2023-12-07T03:29:30;102471.41;;;2.11;100.00
31005;BME280;17676;52.254;4.490;2023-12-07T03:31:55;102478.22;;;2.15;100.00
31005;BME280;17676;52.254;4.490;2023-12-07T03:34:21;102485.69;;;2.22;100.00
31005;BME280;17676;52.254;4.490;2023-12-07T03:36:47;102480.56;;;2.19;100.00
31005;BME280;17676;52.254;4.490;2023-12-07T03:39:14;102474.13;;;2.22;100.00
31005;BME280;17676;52.254;4.490;2023-12-07T03:41:45;102483.50;;;2.27;100.00
31005;BME280;17676;52.254;4.490;2023-12-07T03:44:11;102486.69;;;2.32;100.00
31005;BME280;17676;52.254;4.490;2023-12-07T03:46:36;102486.47;;;2.35;100.00
31005;BME280;17676;52.254;4.490;2023-12-07T03:49:02;102473.22;;;2.34;100.00
31005;BME280;17676;52.254;4.490;2023-12-07T03:51:28;102475.41;;;2.29;100.00
31005;BME280;17676;52.254;4.490;2023-12-07T03:53:54;102464.06;;;2.25;100.00
31005;BME280;17676;52.254;4.490;2023-12-07T03:56:27;102486.34;;;2.37;100.00
31005;BME280;17676;52.254;4.490;2023-12-07T03:58:54;102486.25;;;2.38;100.00
31005;BME280;17676;52.254;4.490;2023-12-07T04:01:24;102489.63;;;2.40;100.00
31005;BME280;17676;52.254;4.490;2023-12-07T04:03:54;102486.47;;;2.35;100.00
31005;BME280;17676;52.254;4.490;2023-12-07T04:06:24;102475.28;;;2.30;100.00
31005;BME280;17676;52.254;4.490;2023-12-07T04:08:50;102474.19;;;2.33;100.00
31005;BME280;17676;52.254;4.490;2023-12-07T04:11:16;102491.44;;;2.40;100.00
31005;BME280;17676;52.254;4.490;2023-12-07T04:13:42;102482.44;;;2.30;100.00
31005;BME280;17676;52.254;4.490;2023-12-07T04:16:09;102497.53;;;2.42;100.00
31005;BME280;17676;52.254;4.490;2023-12-07T04:18:35;102489.84;;;2.37;100.00
31005;BME280;17676;52.254;4.490;2023-12-07T04:21:01;102477.94;;;2.30;100.00
31005;BME280;17676;52.254;4.490;2023-12-07T04:23:27;102469.19;;;2.28;100.00
31005;BME280;17676;52.254;4.490;2023-12-07T04:25:52;102476.00;;;2.32;100.00
31005;BME280;17676;52.254;4.490;2023-12-07T04:28:18;102468.09;;;2.31;100.00
31005;BME280;17676;52.254;4.490;2023-12-07T04:30:43;102474.19;;;2.33;100.00
31005;BME280;17676;52.254;4.490;2023-12-07T04:33:09;102473.56;;;2.29;100.00
31005;BME280;17676;52.254;4.490;2023-12-07T04:35:35;102453.88;;;2.19;100.00
31005;BME280;17676;52.254;4.490;2023-12-07T04:38:01;102463.47;;;2.22;100.00
31005;BME280;17676;52.254;4.490;2023-12-07T04:40:27;102461.97;;;2.18;100.00
31005;BME280;17676;52.254;4.490;2023-12-07T04:42:53;102466.72;;;2.14;100.00
31005;BME280;17676;52.254;4.490;2023-12-07T04:45:19;102474.56;;;2.16;100.00
31005;BME280;17676;52.254;4.490;2023-12-07T04:47:45;102465.47;;;2.07;100.00
31005;BME280;17676;52.254;4.490;2023-12-07T04:50:11;102475.91;;;2.10;100.00
31005;BME280;17676;52.254;4.490;2023-12-07T04:52:37;102466.53;;;2.05;100.00
31005;BME280;17676;52.254;4.490;2023-12-07T04:55:03;102456.28;;;1.99;100.00
31005;BME280;17676;52.254;4.490;2023-12-07T04:57:29;102465.38;;;1.96;100.00
31005;BME280;17676;52.254;4.490;2023-12-07T04:59:54;102475.50;;;2.04;100.00
31005;BME280;17676;52.254;4.490;2023-12-07T05:02:21;102467.72;;;2.01;100.00
31005;BME280;17676;52.254;4.490;2023-12-07T05:04:46;102478.59;;;2.10;100.00
31005;BME280;17676;52.254;4.490;2023-12-07T05:07:12;102471.88;;;2.05;100.00
31005;BME280;17676;52.254;4.490;2023-12-07T05:09:38;102472.00;;;2.03;100.00
31005;BME280;17676;52.254;4.490;2023-12-07T05:12:07;102478.88;;;2.18;100.00
31005;BME280;17676;52.254;4.490;2023-12-07T05:15:05;102454.38;;;2.01;100.00
31005;BME280;17676;52.254;4.490;2023-12-07T05:17:40;102461.59;;;2.11;100.00
31005;BME280;17676;52.254;4.490;2023-12-07T05:20:16;102465.75;;;2.15;100.00
31005;BME280;17676;52.254;4.490;2023-12-07T05:22:41;102466.47;;;2.17;100.00
31005;BME280;17676;52.254;4.490;2023-12-07T05:25:07;102459.19;;;2.19;100.00
31005;BME280;17676;52.254;4.490;2023-12-07T05:27:33;102466.75;;;2.25;100.00
31005;BME280;17676;52.254;4.490;2023-12-07T05:30:01;102462.38;;;2.24;100.00
31005;BME280;17676;52.254;4.490;2023-12-07T05:32:27;102458.22;;;2.20;100.00
31005;BME280;17676;52.254;4.490;2023-12-07T05:34:53;102471.47;;;2.22;100.00
31005;BME280;17676;52.254;4.490;2023-12-07T05:37:18;102468.41;;;2.15;100.00
31005;BME280;17676;52.254;4.490;2023-12-07T05:39:44;102462.84;;;2.18;100.00
31005;BME280;17676;52.254;4.490;2023-12-07T05:42:09;102459.66;;;2.13;100.00
31005;BME280;17676;52.254;4.490;2023-12-07T05:44:36;102462.84;;;2.18;100.00
31005;BME280;17676;52.254;4.490;2023-12-07T05:47:04;102449.72;;;2.15;100.00
31005;BME280;17676;52.254;4.490;2023-12-07T05:49:30;102445.56;;;2.11;100.00
31005;BME280;17676;52.254;4.490;2023-12-07T05:51:56;102457.72;;;2.15;100.00
31005;BME280;17676;52.254;4.490;2023-12-07T05:54:21;102445.22;;;2.16;100.00
31005;BME280;17676;52.254;4.490;2023-12-07T05:56:50;102445.75;;;2.21;100.00
31005;BME280;17676;52.254;4.490;2023-12-07T05:59:15;102451.41;;;2.16;100.00
31005;BME280;17676;52.254;4.490;2023-12-07T06:01:44;102455.88;;;2.16;100.00
31005;BME280;17676;52.254;4.490;2023-12-07T06:04:09;102455.38;;;2.11;100.00
31005;BME280;17676;52.254;4.490;2023-12-07T06:06:37;102454.13;;;2.04;100.00
31005;BME280;17676;52.254;4.490;2023-12-07T06:09:06;102449.88;;;2.01;100.00
31005;BME280;17676;52.254;4.490;2023-12-07T06:11:32;102463.50;;;2.09;100.00
31005;BME280;17676;52.254;4.490;2023-12-07T06:13:57;102472.06;;;2.14;100.00
31005;BME280;17676;52.254;4.490;2023-12-07T06:16:25;102464.97;;;2.13;100.00
31005;BME280;17676;52.254;4.490;2023-12-07T06:18:53;102463.97;;;2.27;100.00
31005;BME280;17676;52.254;4.490;2023-12-07T06:21:21;102452.66;;;2.23;100.00
31005;BME280;17676;52.254;4.490;2023-12-07T06:23:46;102443.34;;;2.29;100.00
31005;BME280;17676;52.254;4.490;2023-12-07T06:26:12;102464.75;;;2.16;100.00
31005;BME280;17676;52.254;4.490;2023-12-07T06:28:38;102469.81;;;2.08;100.00
31005;BME280;17676;52.254;4.490;2023-12-07T06:31:06;102466.94;;;2.11;100.00
31005;BME280;17676;52.254;4.490;2023-12-07T06:33:33;102465.38;;;2.20;100.00
31005;BME280;17676;52.254;4.490;2023-12-07T06:36:00;102466.63;;;2.27;100.00
31005;BME280;17676;52.254;4.490;2023-12-07T06:38:25;102454.78;;;2.07;100.00
31005;BME280;17676;52.254;4.490;2023-12-07T06:40:51;102452.00;;;2.09;100.00
31005;BME280;17676;52.254;4.490;2023-12-07T06:43:17;102428.97;;;2.19;100.00
31005;BME280;17676;52.254;4.490;2023-12-07T06:45:42;102429.78;;;2.08;100.00
31005;BME280;17676;52.254;4.490;2023-12-07T06:48:08;102423.44;;;1.98;100.00
31005;BME280;17676;52.254;4.490;2023-12-07T06:50:33;102435.13;;;2.08;100.00
31005;BME280;17676;52.254;4.490;2023-12-07T06:52:59;102431.72;;;2.06;100.00
31005;BME280;17676;52.254;4.490;2023-12-07T06:55:24;102434.78;;;2.13;100.00
31005;BME280;17676;52.254;4.490;2023-12-07T06:57:50;102431.34;;;2.11;100.00
31005;BME280;17676;52.254;4.490;2023-12-07T07:00:16;102429.44;;;1.89;100.00
31005;BME280;17676;52.254;4.490;2023-12-07T07:02:43;102429.16;;;1.45;100.00
31005;BME280;17676;52.254;4.490;2023-12-07T07:05:09;102422.13;;;1.44;100.00
31005;BME280;17676;52.254;4.490;2023-12-07T07:07:37;102404.16;;;1.59;100.00
31005;BME280;17676;52.254;4.490;2023-12-07T07:10:03;102407.69;;;1.59;100.00
31005;BME280;17676;52.254;4.490;2023-12-07T07:12:29;102417.38;;;1.60;100.00
31005;BME280;17676;52.254;4.490;2023-12-07T07:14:55;102423.97;;;1.67;100.00
31005;BME280;17676;52.254;4.490;2023-12-07T07:17:21;102686.53;;;1.52;100.00
31005;BME280;17676;52.254;4.490;2023-12-07T07:19:46;102890.59;;;1.59;100.00
31005;BME280;17676;52.254;4.490;2023-12-07T07:22:12;102894.81;;;1.49;100.00
31005;BME280;17676;52.254;4.490;2023-12-07T07:24:37;102910.22;;;1.58;100.00
31005;BME280;17676;52.254;4.490;2023-12-07T07:27:03;102899.50;;;1.46;100.00
31005;BME280;17676;52.254;4.490;2023-12-07T07:29:28;103017.72;;;1.46;100.00
31005;BME280;17676;52.254;4.490;2023-12-07T07:31:54;103027.25;;;1.36;100.00
31005;BME280;17676;52.254;4.490;2023-12-07T07:34:21;103023.25;;;1.29;100.00
31005;BME280;17676;52.254;4.490;2023-12-07T07:36:47;103037.56;;;1.42;100.00
31005;BME280;17676;52.254;4.490;2023-12-07T07:39:12;103034.09;;;1.12;100.00
31005;BME280;17676;52.254;4.490;2023-12-07T07:41:39;103056.78;;;1.19;100.00
31005;BME280;17676;52.254;4.490;2023-12-07T07:44:04;103069.53;;;1.14;100.00
31005;BME280;17676;52.254;4.490;2023-12-07T07:46:30;103078.84;;;1.07;100.00
31005;BME280;17676;52.254;4.490;2023-12-07T07:48:56;103072.59;;;1.22;100.00
31005;BME280;17676;52.254;4.490;2023-12-07T07:51:22;103071.22;;;1.01;100.00
31005;BME280;17676;52.254;4.490;2023-12-07T07:53:47;103062.66;;;1.10;100.00
31005;BME280;17676;52.254;4.490;2023-12-07T07:56:12;103042.56;;;1.19;100.00
31005;BME280;17676;52.254;4.490;2023-12-07T07:58:38;103029.34;;;1.45;100.00
31005;BME280;17676;52.254;4.490;2023-12-07T08:01:04;103025.25;;;1.26;100.00
31005;BME280;17676;52.254;4.490;2023-12-07T08:03:30;103009.91;;;1.29;100.00
31005;BME280;17676;52.254;4.490;2023-12-07T08:05:55;103020.59;;;1.43;100.00
31005;BME280;17676;52.254;4.490;2023-12-07T08:08:21;102977.34;;;1.38;100.00
31005;BME280;17676;52.254;4.490;2023-12-07T08:10:47;102866.31;;;1.50;100.00
31005;BME280;17676;52.254;4.490;2023-12-07T08:13:13;102843.97;;;1.38;100.00
31005;BME280;17676;52.254;4.490;2023-12-07T08:15:38;102891.13;;;1.38;100.00
31005;BME280;17676;52.254;4.490;2023-12-07T08:18:04;102888.38;;;1.39;100.00
31005;BME280;17676;52.254;4.490;2023-12-07T08:20:30;102864.00;;;1.31;100.00
31005;BME280;17676;52.254;4.490;2023-12-07T08:22:56;102875.13;;;1.38;100.00
31005;BME280;17676;52.254;4.490;2023-12-07T08:25:21;102870.44;;;1.41;100.00
31005;BME280;17676;52.254;4.490;2023-12-07T08:27:47;102850.59;;;1.45;100.00
31005;BME280;17676;52.254;4.490;2023-12-07T08:30:13;102834.41;;;1.48;100.00
31005;BME280;17676;52.254;4.490;2023-12-07T08:32:39;102816.84;;;1.58;100.00
31005;BME280;17676;52.254;4.490;2023-12-07T08:35:05;102795.19;;;1.63;100.00
31005;BME280;17676;52.254;4.490;2023-12-07T08:37:31;102781.25;;;1.45;100.00
31005;BME280;17676;52.254;4.490;2023-12-07T08:39:58;102784.34;;;1.39;100.00
31005;BME280;17676;52.254;4.490;2023-12-07T08:42:23;102757.19;;;1.59;100.00
31005;BME280;17676;52.254;4.490;2023-12-07T08:44:49;102722.91;;;1.53;100.00
31005;BME280;17676;52.254;4.490;2023-12-07T08:47:15;102713.13;;;1.66;100.00
31005;BME280;17676;52.254;4.490;2023-12-07T08:49:40;102688.59;;;1.86;100.00
31005;BME280;17676;52.254;4.490;2023-12-07T08:52:06;102671.81;;;1.84;100.00
31005;BME280;17676;52.254;4.490;2023-12-07T08:54:32;102667.31;;;1.72;100.00
31005;BME280;17676;52.254;4.490;2023-12-07T08:56:57;102665.41;;;1.74;100.00
31005;BME280;17676;52.254;4.490;2023-12-07T08:59:23;102646.09;;;1.83;100.00
31005;BME280;17676;52.254;4.490;2023-12-07T09:01:49;102636.44;;;1.93;100.00
31005;BME280;17676;52.254;4.490;2023-12-07T09:04:14;102640.19;;;2.03;100.00
31005;BME280;17676;52.254;4.490;2023-12-07T09:06:40;102646.81;;;1.98;100.00
31005;BME280;17676;52.254;4.490;2023-12-07T09:09:05;102642.09;;;2.01;100.00
31005;BME280;17676;52.254;4.490;2023-12-07T09:11:31;102656.88;;;1.94;100.00
31005;BME280;17676;52.254;4.490;2023-12-07T09:13:57;102648.97;;;1.80;100.00
31005;BME280;17676;52.254;4.490;2023-12-07T09:16:24;102644.59;;;1.54;100.00
31005;BME280;17676;52.254;4.490;2023-12-07T09:18:51;102637.00;;;1.48;100.00
31005;BME280;17676;52.254;4.490;2023-12-07T09:21:17;102630.28;;;1.55;100.00
31005;BME280;17676;52.254;4.490;2023-12-07T09:23:43;102559.19;;;1.67;100.00
31005;BME280;17676;52.254;4.490;2023-12-07T09:26:08;102552.94;;;1.55;100.00
31005;BME280;17676;52.254;4.490;2023-12-07T09:28:34;102538.31;;;1.61;100.00
31005;BME280;17676;52.254;4.490;2023-12-07T09:30:59;102514.69;;;1.67;100.00
31005;BME280;17676;52.254;4.490;2023-12-07T09:33:25;102517.28;;;1.56;100.00
31005;BME280;17676;52.254;4.490;2023-12-07T09:35:51;102495.13;;;1.43;100.00
31005;BME280;17676;52.254;4.490;2023-12-07T09:38:16;102478.97;;;1.57;100.00
31005;BME280;17676;52.254;4.490;2023-12-07T09:40:42;102476.75;;;1.51;100.00
31005;BME280;17676;52.254;4.490;2023-12-07T09:43:09;102456.00;;;1.67;100.00
31005;BME280;17676;52.254;4.490;2023-12-07T09:45:35;102455.78;;;1.70;100.00
31005;BME280;17676;52.254;4.490;2023-12-07T09:48:01;102442.06;;;1.87;100.00
31005;BME280;17676;52.254;4.490;2023-12-07T09:50:28;102414.78;;;1.95;100.00
31005;BME280;17676;52.254;4.490;2023-12-07T09:52:56;102403.06;;;2.08;100.00
31005;BME280;17676;52.254;4.490;2023-12-07T09:55:22;102396.59;;;2.00;100.00
31005;BME280;17676;52.254;4.490;2023-12-07T09:57:49;102404.53;;;2.12;100.00
31005;BME280;17676;52.254;4.490;2023-12-07T10:00:15;102385.91;;;2.23;100.00
31005;BME280;17676;52.254;4.490;2023-12-07T10:02:42;102378.97;;;2.32;100.00
31005;BME280;17676;52.254;4.490;2023-12-07T10:05:12;102369.75;;;2.36;100.00
31005;BME280;17676;52.254;4.490;2023-12-07T10:07:46;102367.34;;;2.44;100.00
31005;BME280;17676;52.254;4.490;2023-12-07T10:10:13;102366.53;;;2.43;100.00
31005;BME280;17676;52.254;4.490;2023-12-07T10:15:15;102346.13;;;2.53;100.00
31005;BME280;17676;52.254;4.490;2023-12-07T10:20:20;102376.69;;;2.27;100.00
31005;BME280;17676;52.254;4.490;2023-12-07T10:23:03;102357.75;;;2.41;100.00
31005;BME280;17676;52.254;4.490;2023-12-07T10:25:35;102379.63;;;2.35;100.00
31005;BME280;17676;52.254;4.490;2023-12-07T10:28:01;102361.91;;;2.34;100.00
31005;BME280;17676;52.254;4.490;2023-12-07T10:30:32;102357.00;;;2.28;100.00
31005;BME280;17676;52.254;4.490;2023-12-07T10:32:57;102344.78;;;2.37;100.00
31005;BME280;17676;52.254;4.490;2023-12-07T10:35:23;102325.97;;;2.49;100.00
31005;BME280;17676;52.254;4.490;2023-12-07T10:37:49;102314.69;;;2.57;100.00
31005;BME280;17676;52.254;4.490;2023-12-07T10:40:15;102322.09;;;2.75;100.00
31005;BME280;17676;52.254;4.490;2023-12-07T10:42:41;102319.53;;;2.85;100.00
31005;BME280;17676;52.254;4.490;2023-12-07T10:45:07;102313.81;;;2.78;100.00
31005;BME280;17676;52.254;4.490;2023-12-07T10:47:38;102299.97;;;2.84;100.00
31005;BME280;17676;52.254;4.490;2023-12-07T10:50:08;102298.50;;;2.69;100.00
31005;BME280;17676;52.254;4.490;2023-12-07T10:52:39;102284.16;;;2.81;100.00
31005;BME280;17676;52.254;4.490;2023-12-07T10:55:16;102291.94;;;2.84;100.00
31005;BME280;17676;52.254;4.490;2023-12-07T10:57:44;102275.28;;;3.03;100.00
31005;BME280;17676;52.254;4.490;2023-12-07T11:00:10;102265.44;;;2.92;100.00
31005;BME280;17676;52.254;4.490;2023-12-07T11:02:36;102288.06;;;2.88;100.00
31005;BME280;17676;52.254;4.490;2023-12-07T11:05:04;102289.75;;;2.89;100.00
31005;BME280;17676;52.254;4.490;2023-12-07T11:08:09;102283.81;;;2.75;100.00
31005;BME280;17676;52.254;4.490;2023-12-07T11:13:11;102270.16;;;3.00;100.00
31005;BME280;17676;52.254;4.490;2023-12-07T11:15:40;102272.47;;;3.04;100.00
31005;BME280;17676;52.254;4.490;2023-12-07T11:18:06;102274.69;;;2.99;100.00
31005;BME280;17676;52.254;4.490;2023-12-07T11:23:05;102281.34;;;3.05;100.00
31005;BME280;17676;52.254;4.490;2023-12-07T11:25:32;102272.94;;;3.09;100.00
31005;BME280;17676;52.254;4.490;2023-12-07T11:28:01;102288.28;;;3.07;100.00
31005;BME280;17676;52.254;4.490;2023-12-07T11:30:30;102284.63;;;3.08;100.00
31005;BME280;17676;52.254;4.490;2023-12-07T11:32:56;102294.56;;;3.17;100.00
31005;BME280;17676;52.254;4.490;2023-12-07T11:35:21;102280.47;;;3.15;100.00
31005;BME280;17676;52.254;4.490;2023-12-07T11:38:04;102292.88;;;3.16;100.00
31005;BME280;17676;52.254;4.490;2023-12-07T11:40:35;102276.59;;;3.08;100.00
31005;BME280;17676;52.254;4.490;2023-12-07T11:43:01;102273.38;;;3.25;100.00
31005;BME280;17676;52.254;4.490;2023-12-07T11:45:46;102281.38;;;3.36;100.00
31005;BME280;17676;52.254;4.490;2023-12-07T11:48:15;102258.81;;;3.18;100.00
31005;BME280;17676;52.254;4.490;2023-12-07T11:51:02;102291.41;;;3.12;100.00
31005;BME280;17676;52.254;4.490;2023-12-07T11:53:32;102278.75;;;3.14;100.00
31005;BME280;17676;52.254;4.490;2023-12-07T11:56:00;102280.06;;;3.31;100.00
31005;BME280;17676;52.254;4.490;2023-12-07T11:58:29;102279.06;;;3.32;100.00
31005;BME280;17676;52.254;4.490;2023-12-07T12:00:55;102276.81;;;3.27;100.00
31005;BME280;17676;52.254;4.490;2023-12-07T12:03:26;102278.84;;;3.35;100.00
31005;BME280;17676;52.254;4.490;2023-12-07T12:05:52;102274.06;;;3.38;100.00
31005;BME280;17676;52.254;4.490;2023-12-07T12:08:18;102281.84;;;3.41;100.00
31005;BME280;17676;52.254;4.490;2023-12-07T12:10:45;102292.56;;;3.41;100.00
31005;BME280;17676;52.254;4.490;2023-12-07T12:13:12;102307.41;;;3.34;100.00
31005;BME280;17676;52.254;4.490;2023-12-07T12:15:39;102310.28;;;3.42;100.00
31005;BME280;17676;52.254;4.490;2023-12-07T12:18:06;102291.09;;;3.37;100.00
31005;BME280;17676;52.254;4.490;2023-12-07T12:20:32;102300.78;;;3.49;100.00
31005;BME280;17676;52.254;4.490;2023-12-07T12:22:58;102313.47;;;3.47;100.00
31005;BME280;17676;52.254;4.490;2023-12-07T12:25:26;102315.19;;;3.37;100.00
31005;BME280;17676;52.254;4.490;2023-12-07T12:27:55;102330.97;;;3.51;100.00
31005;BME280;17676;52.254;4.490;2023-12-07T12:30:21;102325.88;;;3.48;100.00
31005;BME280;17676;52.254;4.490;2023-12-07T12:32:51;102356.34;;;3.57;100.00
31005;BME280;17676;52.254;4.490;2023-12-07T12:35:17;102378.03;;;3.54;100.00
31005;BME280;17676;52.254;4.490;2023-12-07T12:37:47;102392.03;;;3.46;100.00
31005;BME280;17676;52.254;4.490;2023-12-07T12:40:15;102410.75;;;3.46;100.00
31005;BME280;17676;52.254;4.490;2023-12-07T12:42:42;102426.34;;;3.41;100.00
31005;BME280;17676;52.254;4.490;2023-12-07T12:45:09;102462.81;;;3.42;100.00
31005;BME280;17676;52.254;4.490;2023-12-07T12:47:36;102460.66;;;3.36;100.00
31005;BME280;17676;52.254;4.490;2023-12-07T12:50:02;102491.53;;;3.40;100.00
31005;BME280;17676;52.254;4.490;2023-12-07T12:52:31;102518.88;;;3.33;100.00
31005;BME280;17676;52.254;4.490;2023-12-07T12:54:57;102548.91;;;3.25;100.00
31005;BME280;17676;52.254;4.490;2023-12-07T12:57:23;102562.63;;;3.21;100.00
31005;BME280;17676;52.254;4.490;2023-12-07T12:59:50;102569.59;;;3.34;100.00
31005;BME280;17676;52.254;4.490;2023-12-07T13:02:16;102576.41;;;3.38;100.00